Wednesday, June 20, 2018, 10:25 PM GMT
Back to Local

CWNQ, Nicolet Automatic Weather Reporting System

Location: , , Canada Lat: 46.217
Local Time: 10:25 PM GMT (22:25 GMT) Lon: -72.65
Time Zone: GMT Elev: 32 ft

Show me the last for .
Show Coded

Time T Td Feel RH Dir Speed Gust Alt SLP Vis Weather Sky Remarks
2018-06-20 22:00 68 64 - 87 250° 9 - - 29.67 0 Peak wind: 26 mph (23 kts) from 270° at 03 min
2018-06-20 21:00 72 61 76 68 260° 20 29 - 29.68 0 Peak wind: 28 mph (25 kts) from 260° at 53 min
2018-06-20 20:00 74 64 78 69 240° 15 - - 29.66 0 Peak wind: 24 mph (21 kts) from 220° at 12 min
2018-06-20 19:00 77 60 79 55 240° 16 24 - 29.66 0 Peak wind: 26 mph (23 kts) from 220° at 11 min
2018-06-20 18:00 77 59 79 52 230° 15 23 - 29.68 0 Peak wind: 24 mph (21 kts) from 230° at 17 min
2018-06-20 17:00 74 57 77 54 220° 15 21 - 29.69 0 Peak wind: 24 mph (21 kts) from 220° at 47 min
2018-06-20 16:00 72 57 76 59 220° 13 - - 29.72 0 Peak wind: 19 mph (17 kts) from 250° at 12 min
2018-06-20 15:00 73 56 76 56 230° 14 20 - 29.74 0 Peak wind: 23 mph (20 kts) from 220° at 44 min
2018-06-20 14:00 69 58 - 67 220° 10 - - 29.75 0 None
2018-06-20 12:00 63 55 - 74 220° 8 - - 29.80 0 None
2018-06-20 11:00 60 54 - 80 220° 8 - - 29.81 0 None
2018-06-20 10:00 57 53 - 86 210° 7 - - 29.81 0 None
2018-06-20 08:00 58 53 - 82 240° 6 - - 29.81 0 None
2018-06-20 07:00 55 53 - 93 220° 1 - - 29.82 0 None
2018-06-20 04:00 57 54 - 91 260° 5 - - 29.84 0 None
2018-06-20 03:00 59 53 - 78 - Calm - - 29.84 0 None
2018-06-20 02:00 63 54 - 71 340° 1 - - 29.85 0 None
2018-06-20 01:00 68 51 - 55 290° 2 - - 29.84 0 None
2018-06-20 00:00 72 46 75 40 290° 1 - - 29.83 0 None
2018-06-19 23:00 73 43 - 33 300° 5 - - 29.82 0 None

Support USWX by starting your Amazon purchase here.